sensor_id;sensor_type;location;lat;lon;timestamp;P1;durP1;ratioP1;P2;durP2;ratioP2
46613;SDS011;32338;50.430;6.806;2023-04-06T00:00:01;8.00;;;5.65;;
46613;SDS011;32338;50.430;6.806;2023-04-06T00:02:29;8.65;;;5.25;;
46613;SDS011;32338;50.430;6.806;2023-04-06T00:04:55;9.27;;;4.60;;
46613;SDS011;32338;50.430;6.806;2023-04-06T00:07:24;15.82;;;6.10;;
46613;SDS011;32338;50.430;6.806;2023-04-06T00:09:51;7.78;;;5.32;;
46613;SDS011;32338;50.430;6.806;2023-04-06T00:12:18;10.38;;;5.88;;
46613;SDS011;32338;50.430;6.806;2023-04-06T00:14:44;7.63;;;5.50;;
46613;SDS011;32338;50.430;6.806;2023-04-06T00:17:11;10.43;;;5.43;;
46613;SDS011;32338;50.430;6.806;2023-04-06T00:19:38;8.93;;;5.35;;
46613;SDS011;32338;50.430;6.806;2023-04-06T00:22:04;10.02;;;6.55;;
46613;SDS011;32338;50.430;6.806;2023-04-06T00:24:32;11.15;;;5.78;;
46613;SDS011;32338;50.430;6.806;2023-04-06T00:26:59;10.80;;;5.93;;
46613;SDS011;32338;50.430;6.806;2023-04-06T00:29:26;10.50;;;6.00;;
46613;SDS011;32338;50.430;6.806;2023-04-06T00:31:53;8.73;;;6.28;;
46613;SDS011;32338;50.430;6.806;2023-04-06T00:34:19;10.70;;;5.90;;
46613;SDS011;32338;50.430;6.806;2023-04-06T00:36:46;8.93;;;5.38;;
46613;SDS011;32338;50.430;6.806;2023-04-06T00:39:13;9.18;;;5.18;;
46613;SDS011;32338;50.430;6.806;2023-04-06T00:41:42;7.85;;;5.40;;
46613;SDS011;32338;50.430;6.806;2023-04-06T00:44:15;6.35;;;5.13;;
46613;SDS011;32338;50.430;6.806;2023-04-06T00:46:41;9.43;;;4.75;;
46613;SDS011;32338;50.430;6.806;2023-04-06T00:49:08;7.07;;;4.75;;
46613;SDS011;32338;50.430;6.806;2023-04-06T00:51:35;7.65;;;5.30;;
46613;SDS011;32338;50.430;6.806;2023-04-06T00:54:02;9.80;;;5.80;;
46613;SDS011;32338;50.430;6.806;2023-04-06T00:56:29;7.78;;;5.40;;
46613;SDS011;32338;50.430;6.806;2023-04-06T00:58:57;7.30;;;4.82;;
46613;SDS011;32338;50.430;6.806;2023-04-06T01:01:24;10.82;;;4.57;;
46613;SDS011;32338;50.430;6.806;2023-04-06T01:03:51;8.05;;;5.40;;
46613;SDS011;32338;50.430;6.806;2023-04-06T01:06:18;8.95;;;5.32;;
46613;SDS011;32338;50.430;6.806;2023-04-06T01:08:44;9.00;;;5.00;;
46613;SDS011;32338;50.430;6.806;2023-04-06T01:11:11;13.60;;;5.07;;
46613;SDS011;32338;50.430;6.806;2023-04-06T01:13:38;11.50;;;5.05;;
46613;SDS011;32338;50.430;6.806;2023-04-06T01:16:06;6.25;;;4.47;;
46613;SDS011;32338;50.430;6.806;2023-04-06T01:18:34;9.30;;;5.82;;
46613;SDS011;32338;50.430;6.806;2023-04-06T01:21:01;6.32;;;4.88;;
46613;SDS011;32338;50.430;6.806;2023-04-06T01:23:29;11.32;;;5.38;;
46613;SDS011;32338;50.430;6.806;2023-04-06T01:25:56;8.27;;;4.75;;
46613;SDS011;32338;50.430;6.806;2023-04-06T01:28:23;8.52;;;4.65;;
46613;SDS011;32338;50.430;6.806;2023-04-06T01:30:49;8.02;;;4.85;;
46613;SDS011;32338;50.430;6.806;2023-04-06T01:33:16;12.30;;;4.70;;
46613;SDS011;32338;50.430;6.806;2023-04-06T01:35:43;8.60;;;5.15;;
46613;SDS011;32338;50.430;6.806;2023-04-06T01:38:10;10.65;;;5.57;;
46613;SDS011;32338;50.430;6.806;2023-04-06T01:40:38;10.00;;;5.63;;
46613;SDS011;32338;50.430;6.806;2023-04-06T01:43:05;7.32;;;4.97;;
46613;SDS011;32338;50.430;6.806;2023-04-06T01:45:31;7.95;;;4.88;;
46613;SDS011;32338;50.430;6.806;2023-04-06T01:47:58;7.40;;;5.20;;
46613;SDS011;32338;50.430;6.806;2023-04-06T01:50:25;7.78;;;5.20;;
46613;SDS011;32338;50.430;6.806;2023-04-06T01:52:52;9.00;;;5.10;;
46613;SDS011;32338;50.430;6.806;2023-04-06T01:55:18;9.13;;;4.93;;
46613;SDS011;32338;50.430;6.806;2023-04-06T01:57:46;6.38;;;4.65;;
46613;SDS011;32338;50.430;6.806;2023-04-06T02:00:13;6.55;;;4.63;;
46613;SDS011;32338;50.430;6.806;2023-04-06T02:02:41;8.60;;;4.82;;
46613;SDS011;32338;50.430;6.806;2023-04-06T02:05:08;7.47;;;5.00;;
46613;SDS011;32338;50.430;6.806;2023-04-06T02:07:35;5.75;;;4.45;;
46613;SDS011;32338;50.430;6.806;2023-04-06T02:10:02;7.47;;;5.32;;
46613;SDS011;32338;50.430;6.806;2023-04-06T02:12:29;10.48;;;5.60;;
46613;SDS011;32338;50.430;6.806;2023-04-06T02:14:57;9.73;;;5.28;;
46613;SDS011;32338;50.430;6.806;2023-04-06T02:17:24;15.00;;;5.82;;
46613;SDS011;32338;50.430;6.806;2023-04-06T02:19:50;9.88;;;5.28;;
46613;SDS011;32338;50.430;6.806;2023-04-06T02:22:17;7.38;;;5.50;;
46613;SDS011;32338;50.430;6.806;2023-04-06T02:24:44;6.30;;;4.93;;
46613;SDS011;32338;50.430;6.806;2023-04-06T02:27:11;7.03;;;5.07;;
46613;SDS011;32338;50.430;6.806;2023-04-06T02:29:38;8.15;;;4.95;;
46613;SDS011;32338;50.430;6.806;2023-04-06T02:32:06;10.93;;;4.95;;
46613;SDS011;32338;50.430;6.806;2023-04-06T02:34:33;11.13;;;5.82;;
46613;SDS011;32338;50.430;6.806;2023-04-06T02:36:59;9.15;;;5.60;;
46613;SDS011;32338;50.430;6.806;2023-04-06T02:39:26;7.47;;;4.90;;
46613;SDS011;32338;50.430;6.806;2023-04-06T02:41:53;8.45;;;5.70;;
46613;SDS011;32338;50.430;6.806;2023-04-06T02:44:20;8.13;;;5.95;;
46613;SDS011;32338;50.430;6.806;2023-04-06T02:46:47;13.52;;;6.88;;
46613;SDS011;32338;50.430;6.806;2023-04-06T02:49:15;9.32;;;6.95;;
46613;SDS011;32338;50.430;6.806;2023-04-06T02:51:41;12.13;;;8.25;;
46613;SDS011;32338;50.430;6.806;2023-04-06T02:54:08;21.73;;;10.07;;
46613;SDS011;32338;50.430;6.806;2023-04-06T02:56:35;20.80;;;10.82;;
46613;SDS011;32338;50.430;6.806;2023-04-06T02:59:02;18.70;;;10.10;;
46613;SDS011;32338;50.430;6.806;2023-04-06T03:01:28;19.17;;;9.65;;
46613;SDS011;32338;50.430;6.806;2023-04-06T03:03:55;21.30;;;9.50;;
46613;SDS011;32338;50.430;6.806;2023-04-06T03:06:23;17.25;;;8.73;;
46613;SDS011;32338;50.430;6.806;2023-04-06T03:08:50;15.43;;;8.88;;
46613;SDS011;32338;50.430;6.806;2023-04-06T03:11:17;16.60;;;8.05;;
46613;SDS011;32338;50.430;6.806;2023-04-06T03:13:44;15.85;;;8.80;;
46613;SDS011;32338;50.430;6.806;2023-04-06T03:16:11;20.00;;;8.68;;
46613;SDS011;32338;50.430;6.806;2023-04-06T03:18:37;13.02;;;7.75;;
46613;SDS011;32338;50.430;6.806;2023-04-06T03:21:04;13.85;;;7.90;;
46613;SDS011;32338;50.430;6.806;2023-04-06T03:23:32;10.02;;;5.88;;
46613;SDS011;32338;50.430;6.806;2023-04-06T03:25:59;9.48;;;6.72;;
46613;SDS011;32338;50.430;6.806;2023-04-06T03:28:28;9.98;;;6.53;;
46613;SDS011;32338;50.430;6.806;2023-04-06T03:30:55;13.95;;;6.38;;
46613;SDS011;32338;50.430;6.806;2023-04-06T03:33:22;13.18;;;7.53;;
46613;SDS011;32338;50.430;6.806;2023-04-06T03:35:48;10.77;;;7.40;;
46613;SDS011;32338;50.430;6.806;2023-04-06T03:38:15;10.88;;;6.93;;
46613;SDS011;32338;50.430;6.806;2023-04-06T03:40:43;15.77;;;7.93;;
46613;SDS011;32338;50.430;6.806;2023-04-06T03:43:10;16.58;;;7.70;;
46613;SDS011;32338;50.430;6.806;2023-04-06T03:45:37;16.85;;;8.70;;
46613;SDS011;32338;50.430;6.806;2023-04-06T03:48:04;15.85;;;8.35;;
46613;SDS011;32338;50.430;6.806;2023-04-06T03:50:31;13.75;;;8.23;;
46613;SDS011;32338;50.430;6.806;2023-04-06T03:52:58;13.68;;;7.88;;
46613;SDS011;32338;50.430;6.806;2023-04-06T03:55:26;15.82;;;7.93;;
46613;SDS011;32338;50.430;6.806;2023-04-06T03:57:54;14.70;;;8.73;;
46613;SDS011;32338;50.430;6.806;2023-04-06T04:00:21;13.60;;;8.10;;
46613;SDS011;32338;50.430;6.806;2023-04-06T04:02:48;14.15;;;8.00;;
46613;SDS011;32338;50.430;6.806;2023-04-06T04:05:15;18.58;;;9.18;;
46613;SDS011;32338;50.430;6.806;2023-04-06T04:07:42;18.98;;;9.32;;
46613;SDS011;32338;50.430;6.806;2023-04-06T04:10:09;22.05;;;8.95;;
46613;SDS011;32338;50.430;6.806;2023-04-06T04:12:36;16.63;;;8.35;;
46613;SDS011;32338;50.430;6.806;2023-04-06T04:15:04;14.45;;;8.57;;
46613;SDS011;32338;50.430;6.806;2023-04-06T04:17:31;13.27;;;8.27;;
46613;SDS011;32338;50.430;6.806;2023-04-06T04:19:58;14.20;;;8.52;;
46613;SDS011;32338;50.430;6.806;2023-04-06T04:22:25;20.35;;;9.07;;
46613;SDS011;32338;50.430;6.806;2023-04-06T04:24:52;16.90;;;9.13;;
46613;SDS011;32338;50.430;6.806;2023-04-06T04:27:19;14.63;;;8.98;;
46613;SDS011;32338;50.430;6.806;2023-04-06T04:29:46;14.65;;;9.18;;
46613;SDS011;32338;50.430;6.806;2023-04-06T04:32:15;16.98;;;9.38;;
46613;SDS011;32338;50.430;6.806;2023-04-06T04:34:41;15.40;;;9.18;;
46613;SDS011;32338;50.430;6.806;2023-04-06T04:37:08;17.55;;;9.02;;
46613;SDS011;32338;50.430;6.806;2023-04-06T04:39:35;20.77;;;9.50;;
46613;SDS011;32338;50.430;6.806;2023-04-06T04:42:01;15.80;;;9.25;;
46613;SDS011;32338;50.430;6.806;2023-04-06T04:44:28;19.85;;;9.27;;
46613;SDS011;32338;50.430;6.806;2023-04-06T04:46:55;19.80;;;9.57;;
46613;SDS011;32338;50.430;6.806;2023-04-06T04:49:23;22.58;;;10.38;;
46613;SDS011;32338;50.430;6.806;2023-04-06T04:51:50;15.05;;;9.60;;
46613;SDS011;32338;50.430;6.806;2023-04-06T04:54:17;18.65;;;9.35;;
46613;SDS011;32338;50.430;6.806;2023-04-06T04:56:44;16.88;;;9.88;;
46613;SDS011;32338;50.430;6.806;2023-04-06T04:59:12;17.83;;;9.55;;
46613;SDS011;32338;50.430;6.806;2023-04-06T05:01:39;15.95;;;9.50;;
46613;SDS011;32338;50.430;6.806;2023-04-06T05:04:06;25.42;;;10.45;;
46613;SDS011;32338;50.430;6.806;2023-04-06T05:06:34;18.20;;;9.85;;
46613;SDS011;32338;50.430;6.806;2023-04-06T05:09:01;17.40;;;9.45;;
46613;SDS011;32338;50.430;6.806;2023-04-06T05:11:27;16.48;;;9.15;;
46613;SDS011;32338;50.430;6.806;2023-04-06T05:13:54;19.73;;;9.80;;
46613;SDS011;32338;50.430;6.806;2023-04-06T05:16:22;15.65;;;9.35;;
46613;SDS011;32338;50.430;6.806;2023-04-06T05:18:48;16.52;;;8.73;;
46613;SDS011;32338;50.430;6.806;2023-04-06T05:21:15;15.27;;;8.27;;
46613;SDS011;32338;50.430;6.806;2023-04-06T05:23:43;20.20;;;8.45;;
46613;SDS011;32338;50.430;6.806;2023-04-06T05:26:10;17.90;;;9.25;;
46613;SDS011;32338;50.430;6.806;2023-04-06T05:28:37;20.75;;;9.73;;
46613;SDS011;32338;50.430;6.806;2023-04-06T05:31:03;21.00;;;8.77;;
46613;SDS011;32338;50.430;6.806;2023-04-06T05:33:30;15.35;;;9.07;;
46613;SDS011;32338;50.430;6.806;2023-04-06T05:35:57;19.73;;;8.88;;
46613;SDS011;32338;50.430;6.806;2023-04-06T05:38:25;18.77;;;9.35;;
46613;SDS011;32338;50.430;6.806;2023-04-06T05:40:53;18.73;;;8.75;;
46613;SDS011;32338;50.430;6.806;2023-04-06T05:43:20;18.08;;;9.02;;
46613;SDS011;32338;50.430;6.806;2023-04-06T05:45:47;12.02;;;8.10;;
46613;SDS011;32338;50.430;6.806;2023-04-06T05:48:14;17.55;;;8.98;;
46613;SDS011;32338;50.430;6.806;2023-04-06T05:50:41;22.88;;;9.38;;
46613;SDS011;32338;50.430;6.806;2023-04-06T05:53:07;20.45;;;9.40;;
46613;SDS011;32338;50.430;6.806;2023-04-06T05:55:34;19.35;;;9.07;;
46613;SDS011;32338;50.430;6.806;2023-04-06T05:58:02;17.70;;;9.65;;
46613;SDS011;32338;50.430;6.806;2023-04-06T06:00:29;16.15;;;10.07;;
46613;SDS011;32338;50.430;6.806;2023-04-06T06:02:55;19.73;;;10.00;;
46613;SDS011;32338;50.430;6.806;2023-04-06T06:05:22;17.35;;;9.57;;
46613;SDS011;32338;50.430;6.806;2023-04-06T06:07:49;24.77;;;10.38;;
46613;SDS011;32338;50.430;6.806;2023-04-06T06:10:16;18.23;;;11.38;;
46613;SDS011;32338;50.430;6.806;2023-04-06T06:12:43;24.67;;;10.98;;
46613;SDS011;32338;50.430;6.806;2023-04-06T06:15:11;24.20;;;11.77;;
46613;SDS011;32338;50.430;6.806;2023-04-06T06:17:38;20.05;;;10.98;;
46613;SDS011;32338;50.430;6.806;2023-04-06T06:20:05;18.25;;;10.55;;
46613;SDS011;32338;50.430;6.806;2023-04-06T06:22:33;15.38;;;9.55;;
46613;SDS011;32338;50.430;6.806;2023-04-06T06:25:00;18.80;;;10.45;;
46613;SDS011;32338;50.430;6.806;2023-04-06T06:27:27;18.70;;;10.85;;
46613;SDS011;32338;50.430;6.806;2023-04-06T06:29:54;20.98;;;11.25;;
46613;SDS011;32338;50.430;6.806;2023-04-06T06:32:22;17.88;;;10.00;;
46613;SDS011;32338;50.430;6.806;2023-04-06T06:34:49;18.25;;;10.02;;
46613;SDS011;32338;50.430;6.806;2023-04-06T06:37:16;18.48;;;9.25;;
46613;SDS011;32338;50.430;6.806;2023-04-06T06:39:43;14.07;;;9.18;;
46613;SDS011;32338;50.430;6.806;2023-04-06T06:42:10;18.00;;;10.00;;
46613;SDS011;32338;50.430;6.806;2023-04-06T06:44:36;15.02;;;9.52;;
46613;SDS011;32338;50.430;6.806;2023-04-06T06:47:03;19.33;;;9.63;;
46613;SDS011;32338;50.430;6.806;2023-04-06T06:49:31;20.35;;;10.18;;
46613;SDS011;32338;50.430;6.806;2023-04-06T06:51:58;15.60;;;8.63;;
46613;SDS011;32338;50.430;6.806;2023-04-06T06:54:25;12.27;;;8.60;;
46613;SDS011;32338;50.430;6.806;2023-04-06T06:56:51;13.68;;;9.23;;
46613;SDS011;32338;50.430;6.806;2023-04-06T06:59:19;13.23;;;8.82;;
46613;SDS011;32338;50.430;6.806;2023-04-06T07:01:47;15.45;;;9.13;;
46613;SDS011;32338;50.430;6.806;2023-04-06T07:04:13;16.30;;;10.10;;
46613;SDS011;32338;50.430;6.806;2023-04-06T07:06:41;12.18;;;9.02;;
46613;SDS011;32338;50.430;6.806;2023-04-06T07:09:08;18.77;;;9.55;;
46613;SDS011;32338;50.430;6.806;2023-04-06T07:11:35;17.13;;;8.73;;
46613;SDS011;32338;50.430;6.806;2023-04-06T07:14:02;18.05;;;9.88;;
46613;SDS011;32338;50.430;6.806;2023-04-06T07:16:28;19.38;;;9.90;;
46613;SDS011;32338;50.430;6.806;2023-04-06T07:18:55;19.13;;;9.38;;
46613;SDS011;32338;50.430;6.806;2023-04-06T07:21:22;16.13;;;9.20;;
46613;SDS011;32338;50.430;6.806;2023-04-06T07:23:50;18.08;;;9.32;;
46613;SDS011;32338;50.430;6.806;2023-04-06T07:26:17;19.45;;;9.85;;
46613;SDS011;32338;50.430;6.806;2023-04-06T07:28:43;17.23;;;8.68;;
46613;SDS011;32338;50.430;6.806;2023-04-06T07:31:10;16.92;;;9.38;;
46613;SDS011;32338;50.430;6.806;2023-04-06T07:33:37;23.67;;;9.75;;
46613;SDS011;32338;50.430;6.806;2023-04-06T07:36:04;24.23;;;9.18;;
46613;SDS011;32338;50.430;6.806;2023-04-06T07:38:31;17.17;;;9.38;;
46613;SDS011;32338;50.430;6.806;2023-04-06T07:40:59;17.35;;;9.43;;
46613;SDS011;32338;50.430;6.806;2023-04-06T07:43:28;20.38;;;10.45;;
46613;SDS011;32338;50.430;6.806;2023-04-06T07:45:55;16.45;;;9.73;;
46613;SDS011;32338;50.430;6.806;2023-04-06T07:48:22;16.52;;;9.85;;
46613;SDS011;32338;50.430;6.806;2023-04-06T07:50:49;18.52;;;9.45;;
46613;SDS011;32338;50.430;6.806;2023-04-06T07:53:16;19.55;;;9.15;;
46613;SDS011;32338;50.430;6.806;2023-04-06T07:55:42;16.05;;;9.23;;
46613;SDS011;32338;50.430;6.806;2023-04-06T07:58:11;16.73;;;9.57;;
46613;SDS011;32338;50.430;6.806;2023-04-06T08:00:37;23.70;;;10.07;;
46613;SDS011;32338;50.430;6.806;2023-04-06T08:03:04;18.52;;;9.30;;
46613;SDS011;32338;50.430;6.806;2023-04-06T08:05:31;18.42;;;9.15;;
46613;SDS011;32338;50.430;6.806;2023-04-06T08:07:57;18.33;;;10.05;;
46613;SDS011;32338;50.430;6.806;2023-04-06T08:10:24;19.00;;;9.98;;
46613;SDS011;32338;50.430;6.806;2023-04-06T08:12:51;18.15;;;9.38;;
46613;SDS011;32338;50.430;6.806;2023-04-06T08:15:20;20.45;;;9.32;;
46613;SDS011;32338;50.430;6.806;2023-04-06T08:17:46;20.60;;;10.02;;
46613;SDS011;32338;50.430;6.806;2023-04-06T08:20:13;17.42;;;9.25;;
46613;SDS011;32338;50.430;6.806;2023-04-06T08:22:40;21.08;;;9.55;;
46613;SDS011;32338;50.430;6.806;2023-04-06T08:25:07;28.10;;;10.80;;
46613;SDS011;32338;50.430;6.806;2023-04-06T08:27:34;20.33;;;9.50;;
46613;SDS011;32338;50.430;6.806;2023-04-06T08:30:00;21.95;;;9.98;;
46613;SDS011;32338;50.430;6.806;2023-04-06T08:32:29;17.33;;;9.55;;
46613;SDS011;32338;50.430;6.806;2023-04-06T08:34:55;24.52;;;10.05;;
46613;SDS011;32338;50.430;6.806;2023-04-06T08:37:22;18.60;;;9.18;;
46613;SDS011;32338;50.430;6.806;2023-04-06T08:39:49;20.60;;;9.82;;
46613;SDS011;32338;50.430;6.806;2023-04-06T08:42:18;29.02;;;9.13;;
46613;SDS011;32338;50.430;6.806;2023-04-06T08:44:47;19.73;;;9.32;;
46613;SDS011;32338;50.430;6.806;2023-04-06T08:47:15;19.63;;;9.07;;
46613;SDS011;32338;50.430;6.806;2023-04-06T08:49:43;20.42;;;9.13;;
46613;SDS011;32338;50.430;6.806;2023-04-06T08:52:10;19.60;;;8.48;;
46613;SDS011;32338;50.430;6.806;2023-04-06T08:54:37;21.80;;;9.32;;
46613;SDS011;32338;50.430;6.806;2023-04-06T08:57:04;19.25;;;8.88;;
46613;SDS011;32338;50.430;6.806;2023-04-06T08:59:32;19.40;;;11.63;;
46613;SDS011;32338;50.430;6.806;2023-04-06T09:02:02;17.40;;;9.20;;
46613;SDS011;32338;50.430;6.806;2023-04-06T09:04:30;19.30;;;9.07;;
46613;SDS011;32338;50.430;6.806;2023-04-06T09:07:00;18.27;;;8.80;;
46613;SDS011;32338;50.430;6.806;2023-04-06T09:09:26;15.73;;;8.68;;
46613;SDS011;32338;50.430;6.806;2023-04-06T09:11:53;19.13;;;8.95;;
46613;SDS011;32338;50.430;6.806;2023-04-06T09:14:33;15.05;;;8.55;;
46613;SDS011;32338;50.430;6.806;2023-04-06T09:17:01;16.98;;;8.02;;
46613;SDS011;32338;50.430;6.806;2023-04-06T09:19:27;22.30;;;11.77;;
46613;SDS011;32338;50.430;6.806;2023-04-06T09:22:02;19.90;;;8.88;;
46613;SDS011;32338;50.430;6.806;2023-04-06T09:24:39;21.48;;;8.55;;
46613;SDS011;32338;50.430;6.806;2023-04-06T09:27:06;20.80;;;8.50;;
46613;SDS011;32338;50.430;6.806;2023-04-06T09:29:33;16.75;;;8.35;;
46613;SDS011;32338;50.430;6.806;2023-04-06T09:32:02;15.00;;;8.63;;
46613;SDS011;32338;50.430;6.806;2023-04-06T09:34:30;17.60;;;9.00;;
46613;SDS011;32338;50.430;6.806;2023-04-06T09:36:57;17.23;;;8.73;;
46613;SDS011;32338;50.430;6.806;2023-04-06T09:39:25;16.27;;;8.13;;
46613;SDS011;32338;50.430;6.806;2023-04-06T09:41:53;17.50;;;8.40;;
46613;SDS011;32338;50.430;6.806;2023-04-06T09:44:20;14.93;;;8.25;;
46613;SDS011;32338;50.430;6.806;2023-04-06T09:46:49;18.70;;;8.70;;
46613;SDS011;32338;50.430;6.806;2023-04-06T09:49:15;15.60;;;8.43;;
46613;SDS011;32338;50.430;6.806;2023-04-06T09:51:45;17.52;;;9.32;;
46613;SDS011;32338;50.430;6.806;2023-04-06T09:54:15;21.02;;;8.38;;
46613;SDS011;32338;50.430;6.806;2023-04-06T09:56:47;17.02;;;9.18;;
46613;SDS011;32338;50.430;6.806;2023-04-06T09:59:18;16.30;;;8.60;;
46613;SDS011;32338;50.430;6.806;2023-04-06T10:01:51;20.00;;;10.80;;
46613;SDS011;32338;50.430;6.806;2023-04-06T10:04:21;13.93;;;7.93;;
46613;SDS011;32338;50.430;6.806;2023-04-06T10:06:59;16.00;;;7.50;;
46613;SDS011;32338;50.430;6.806;2023-04-06T10:09:28;14.88;;;8.32;;
46613;SDS011;32338;50.430;6.806;2023-04-06T10:12:02;19.50;;;8.20;;
46613;SDS011;32338;50.430;6.806;2023-04-06T10:14:30;19.33;;;8.65;;
46613;SDS011;32338;50.430;6.806;2023-04-06T10:17:00;20.70;;;10.35;;
46613;SDS011;32338;50.430;6.806;2023-04-06T10:19:30;22.95;;;8.43;;
46613;SDS011;32338;50.430;6.806;2023-04-06T10:22:04;14.70;;;7.97;;
46613;SDS011;32338;50.430;6.806;2023-04-06T10:24:32;17.10;;;8.13;;
46613;SDS011;32338;50.430;6.806;2023-04-06T10:27:01;16.60;;;8.50;;
46613;SDS011;32338;50.430;6.806;2023-04-06T10:29:40;14.93;;;7.85;;
46613;SDS011;32338;50.430;6.806;2023-04-06T10:32:10;15.63;;;7.72;;
46613;SDS011;32338;50.430;6.806;2023-04-06T10:34:36;17.92;;;7.68;;
46613;SDS011;32338;50.430;6.806;2023-04-06T10:37:10;14.73;;;7.72;;
46613;SDS011;32338;50.430;6.806;2023-04-06T10:39:45;13.50;;;7.73;;
46613;SDS011;32338;50.430;6.806;2023-04-06T10:42:14;14.50;;;7.03;;
46613;SDS011;32338;50.430;6.806;2023-04-06T10:44:44;17.48;;;7.53;;
46613;SDS011;32338;50.430;6.806;2023-04-06T10:47:17;12.88;;;7.28;;
46613;SDS011;32338;50.430;6.806;2023-04-06T10:49:44;20.00;;;7.10;;
46613;SDS011;32338;50.430;6.806;2023-04-06T10:52:11;13.23;;;7.25;;
46613;SDS011;32338;50.430;6.806;2023-04-06T10:54:40;14.15;;;7.05;;
46613;SDS011;32338;50.430;6.806;2023-04-06T10:57:09;17.48;;;6.90;;
46613;SDS011;32338;50.430;6.806;2023-04-06T10:59:37;13.18;;;6.50;;
46613;SDS011;32338;50.430;6.806;2023-04-06T11:02:08;14.32;;;7.22;;
46613;SDS011;32338;50.430;6.806;2023-04-06T11:04:35;22.83;;;9.25;;
46613;SDS011;32338;50.430;6.806;2023-04-06T11:07:02;17.02;;;9.45;;
46613;SDS011;32338;50.430;6.806;2023-04-06T11:09:29;16.10;;;7.85;;
46613;SDS011;32338;50.430;6.806;2023-04-06T11:11:57;18.75;;;7.35;;
46613;SDS011;32338;50.430;6.806;2023-04-06T11:14:24;13.98;;;7.78;;
46613;SDS011;32338;50.430;6.806;2023-04-06T11:16:53;11.85;;;7.00;;
46613;SDS011;32338;50.430;6.806;2023-04-06T11:19:19;16.77;;;7.30;;
46613;SDS011;32338;50.430;6.806;2023-04-06T11:21:47;15.02;;;7.68;;
46613;SDS011;32338;50.430;6.806;2023-04-06T11:24:15;11.98;;;7.22;;
46613;SDS011;32338;50.430;6.806;2023-04-06T11:26:44;16.33;;;8.48;;
46613;SDS011;32338;50.430;6.806;2023-04-06T11:29:16;17.85;;;7.60;;
46613;SDS011;32338;50.430;6.806;2023-04-06T11:31:45;13.35;;;7.15;;
46613;SDS011;32338;50.430;6.806;2023-04-06T11:34:15;18.27;;;8.32;;
46613;SDS011;32338;50.430;6.806;2023-04-06T11:36:43;18.58;;;10.15;;
46613;SDS011;32338;50.430;6.806;2023-04-06T11:39:12;14.57;;;7.97;;
46613;SDS011;32338;50.430;6.806;2023-04-06T11:41:39;14.15;;;8.00;;
46613;SDS011;32338;50.430;6.806;2023-04-06T11:44:06;13.43;;;8.10;;
46613;SDS011;32338;50.430;6.806;2023-04-06T11:46:33;14.50;;;8.18;;
46613;SDS011;32338;50.430;6.806;2023-04-06T11:49:00;19.23;;;7.88;;
46613;SDS011;32338;50.430;6.806;2023-04-06T11:51:30;13.88;;;7.80;;
46613;SDS011;32338;50.430;6.806;2023-04-06T11:53:56;16.38;;;7.85;;
46613;SDS011;32338;50.430;6.806;2023-04-06T11:56:24;15.50;;;8.10;;
46613;SDS011;32338;50.430;6.806;2023-04-06T11:58:52;12.40;;;8.20;;
46613;SDS011;32338;50.430;6.806;2023-04-06T12:01:20;13.15;;;8.18;;
46613;SDS011;32338;50.430;6.806;2023-04-06T12:03:47;12.23;;;7.63;;
46613;SDS011;32338;50.430;6.806;2023-04-06T12:06:13;12.65;;;7.28;;
46613;SDS011;32338;50.430;6.806;2023-04-06T12:08:42;12.52;;;7.18;;
46613;SDS011;32338;50.430;6.806;2023-04-06T12:11:09;11.30;;;7.88;;
46613;SDS011;32338;50.430;6.806;2023-04-06T12:13:36;9.90;;;6.45;;
46613;SDS011;32338;50.430;6.806;2023-04-06T12:16:03;8.38;;;6.10;;
46613;SDS011;32338;50.430;6.806;2023-04-06T12:18:31;12.30;;;7.43;;
46613;SDS011;32338;50.430;6.806;2023-04-06T12:20:58;12.05;;;6.60;;
46613;SDS011;32338;50.430;6.806;2023-04-06T12:23:25;12.57;;;7.80;;
46613;SDS011;32338;50.430;6.806;2023-04-06T12:25:53;14.27;;;7.45;;
46613;SDS011;32338;50.430;6.806;2023-04-06T12:28:20;12.73;;;7.13;;
46613;SDS011;32338;50.430;6.806;2023-04-06T12:30:48;12.20;;;7.93;;
46613;SDS011;32338;50.430;6.806;2023-04-06T12:33:15;12.65;;;7.75;;
46613;SDS011;32338;50.430;6.806;2023-04-06T12:35:42;11.02;;;7.90;;
46613;SDS011;32338;50.430;6.806;2023-04-06T12:38:09;14.60;;;9.10;;
46613;SDS011;32338;50.430;6.806;2023-04-06T12:40:38;13.38;;;8.88;;
46613;SDS011;32338;50.430;6.806;2023-04-06T12:43:09;12.75;;;7.60;;
46613;SDS011;32338;50.430;6.806;2023-04-06T12:45:38;15.52;;;8.65;;
46613;SDS011;32338;50.430;6.806;2023-04-06T12:48:05;13.32;;;8.07;;
46613;SDS011;32338;50.430;6.806;2023-04-06T12:50:37;13.20;;;8.23;;
46613;SDS011;32338;50.430;6.806;2023-04-06T12:53:04;13.68;;;8.68;;
46613;SDS011;32338;50.430;6.806;2023-04-06T12:55:31;12.68;;;7.82;;
46613;SDS011;32338;50.430;6.806;2023-04-06T12:58:00;13.50;;;8.02;;
46613;SDS011;32338;50.430;6.806;2023-04-06T13:00:29;14.55;;;8.02;;
46613;SDS011;32338;50.430;6.806;2023-04-06T13:02:57;19.75;;;9.07;;
46613;SDS011;32338;50.430;6.806;2023-04-06T13:05:23;10.75;;;7.80;;
46613;SDS011;32338;50.430;6.806;2023-04-06T13:07:50;14.82;;;8.35;;
46613;SDS011;32338;50.430;6.806;2023-04-06T13:10:17;11.23;;;8.18;;
46613;SDS011;32338;50.430;6.806;2023-04-06T13:12:44;13.45;;;8.57;;
46613;SDS011;32338;50.430;6.806;2023-04-06T13:15:10;13.07;;;8.52;;
46613;SDS011;32338;50.430;6.806;2023-04-06T13:17:45;10.52;;;6.88;;
46613;SDS011;32338;50.430;6.806;2023-04-06T13:20:15;9.93;;;6.82;;
46613;SDS011;32338;50.430;6.806;2023-04-06T13:22:41;7.95;;;6.43;;
46613;SDS011;32338;50.430;6.806;2023-04-06T13:25:08;10.70;;;6.88;;
46613;SDS011;32338;50.430;6.806;2023-04-06T13:27:35;10.60;;;6.45;;
46613;SDS011;32338;50.430;6.806;2023-04-06T13:30:02;9.63;;;6.80;;
46613;SDS011;32338;50.430;6.806;2023-04-06T13:32:30;11.55;;;7.10;;
46613;SDS011;32338;50.430;6.806;2023-04-06T13:34:58;10.10;;;7.47;;
46613;SDS011;32338;50.430;6.806;2023-04-06T13:37:25;14.05;;;7.95;;
46613;SDS011;32338;50.430;6.806;2023-04-06T13:39:52;12.57;;;7.78;;
46613;SDS011;32338;50.430;6.806;2023-04-06T13:42:19;16.08;;;9.05;;
46613;SDS011;32338;50.430;6.806;2023-04-06T13:44:46;14.00;;;8.88;;
46613;SDS011;32338;50.430;6.806;2023-04-06T13:47:13;14.02;;;9.38;;
46613;SDS011;32338;50.430;6.806;2023-04-06T13:49:40;15.07;;;10.10;;
46613;SDS011;32338;50.430;6.806;2023-04-06T13:52:08;15.77;;;11.57;;
46613;SDS011;32338;50.430;6.806;2023-04-06T13:54:36;15.38;;;9.98;;
46613;SDS011;32338;50.430;6.806;2023-04-06T13:57:02;16.70;;;10.25;;
46613;SDS011;32338;50.430;6.806;2023-04-06T13:59:31;16.48;;;10.48;;
46613;SDS011;32338;50.430;6.806;2023-04-06T14:01:58;16.15;;;11.00;;
46613;SDS011;32338;50.430;6.806;2023-04-06T14:04:25;31.20;;;20.35;;
46613;SDS011;32338;50.430;6.806;2023-04-06T14:06:51;17.67;;;11.13;;
46613;SDS011;32338;50.430;6.806;2023-04-06T14:09:19;19.08;;;10.93;;
46613;SDS011;32338;50.430;6.806;2023-04-06T14:11:46;21.42;;;10.70;;
46613;SDS011;32338;50.430;6.806;2023-04-06T14:14:13;16.30;;;11.07;;
46613;SDS011;32338;50.430;6.806;2023-04-06T14:16:40;16.27;;;10.65;;
46613;SDS011;32338;50.430;6.806;2023-04-06T14:19:08;15.13;;;11.15;;
46613;SDS011;32338;50.430;6.806;2023-04-06T14:21:36;18.20;;;11.55;;
46613;SDS011;32338;50.430;6.806;2023-04-06T14:24:04;19.48;;;11.27;;
46613;SDS011;32338;50.430;6.806;2023-04-06T14:26:33;21.95;;;12.05;;
46613;SDS011;32338;50.430;6.806;2023-04-06T14:28:59;19.63;;;11.13;;
46613;SDS011;32338;50.430;6.806;2023-04-06T14:31:26;19.27;;;12.85;;
46613;SDS011;32338;50.430;6.806;2023-04-06T14:33:53;17.55;;;10.98;;
46613;SDS011;32338;50.430;6.806;2023-04-06T14:36:19;17.73;;;11.30;;